Airfield :
LOGIN :

Register | Disclaimer

   EN    FR    IT 

 










Legend :    VFR   Marginal VFR   IFR   Intensive IFR   Very Intensive IFR
Visi :
Ceiling :
>= 8 km
>= 3000ft
5 to 8 km
1000 to 3000 ft
1500m to 5 km
500 to 1000 ft
800 to 1500m
200 to 500 ft
< 800m
< 200 ft
Symbols :   Thunderstorms  Fog  Heavy snow  Heavy precipitations  Wind > 20 kt
SIGMETs :     Misc.  Thunderstorms  Icing  Turbulence  Mountain Waves  Volcanic Ashes







- Airport Elevation : 2945 ft
- IATA code : RGS


LEBG - Burgos

CURRENT METAR :
  • 181800Z 06009KT 9999 SCT002 BKN050 08/07 Q1004

EXPIRED METARs :
  • 181730Z 07011KT 9999 SCT002 BKN035 08/07 Q1004
  • 181700Z 06010KT 030V090 9999 SCT002 BKN035 08/07 Q1004
  • 181630Z 06011KT 9999 BKN002 BKN034 08/07 Q1004
  • 181600Z 06011KT 9999 SCT002 BKN034 08/08 Q1004
  • 181530Z 05007KT 020V080 9999 FEW005 BKN030 BKN046 09/08 Q1005
  • 181500Z 06010KT 9999 FEW005 BKN036 BKN046 09/08 Q1005

TAF TAF LEBG
Valid from the 18 at 18:00 until the 19 at 03:00 UTC


181700Z 1818/1903 05009KT 9999 BKN002
PROB30
TEMPO 1818/1903 3000 RA BKN012
PROB40
TEMPO 1900/1903 0250 FG VV001
No reported NOTAMs for that airfield.
2 SIGMETs reported for the Madrid FIR (LECM) :
 
Embedded thunderstorms
LECM SIGMET 9 VALID 181800/182000 LEVA
LECM MADRID FIR/UIR EMBD TS OBS AT 1745Z WI N3751 W00327 - N3549 W00456 - N3546 W002 - N3754 W00132 - N3751 W00327 TOP FL380 MOV NE NC=
Embedded thunderstorms
LECM SIGMET 8 VALID 181600/181800 LEVA
LECM MADRID FIR/UIR EMBD TS OBS AT 1542Z WI N3551 W00552 - N3747 W00501 - N3758 W00136 - N3552 W00201 - N3551 W00552 TOP FL380 MOV NE NC=



MET'MAP, your aeronautical weather chart ! - Copyright ORBIFLY December 2007 - Disclaimer

ORBIFLY MET'MAP TEAM :

Programming & Development : Alexandra Zaïnal
Concept & Development : Baudouin d'Aumeries
Co-Development & Prog : Marc-Olivier Méhu
Technical & hardware support : Manuel Goepfert

Contact : metmap@orbifly.com




SOURCES & CREDITS :

   NOAA